Pagrindinis puslapis
METAR-TAF:

METAR-TAF

Oro uostai :

Kopenhaga, Danija

platuma: 55-37N, ilguma: 012-39E, Aukštis: 5 m

Dabartinis oras

Ataskaita buvo paskelbta 37 minutes, ne 03:50 UTC
Vėjas 14 kt iš Rytų/Šiaurės Rytų
Temperatūra 14°C
Drėgmė 72%
Slėgis 1012 hPa
Matomumas 10 km arba daugiau

METAR: EKCH 220350Z AUTO 07014KT 9999 NCD 14/09 Q1012 NOSIG

Laikas: 06:27 (04:27 UTC)

Prognozė

Ataskaita buvo paskelbta 5 valandos ir 24 minutes, ne 23:03 UTC
Prognozė galioja nuo 22 metu 00 UTC su 22 metu 24 UTC
Vėjas 12 kt iš Rytų
Matomumas 10 km arba daugiau
nėra debesų žemiau 1500 m ir nėra kamuolinių lietaus debesų
Laikinai
nuo 22 metu 06 UTC su 22 metu 18 UTC
Vėjas 15 kt iš Rytų su gūsio iki 25 kt

TAF: EKCH 212303Z 2200/2224 08012KT CAVOK TEMPO 2206/2218 08015G25KT

Orai ataskaitas ir orų prognozės (METAR, TAF).

turimą stotys yra geltonos ir raudonos taškus žemėlapyje.

Perkelti pele per norėdami pamatyti stoties vardą.

Tada spustelėkite, norėdami matyti oro stebėjimo ir prognozės.

Norėdami pakeisti žemėlapį: spustelėkite ant žalios mygtukų su juodo kryžiaus žemyn,; žalią mygtuką su brūkšneliu, jei norite nutolinti; arba žalių rodyklių gretimoms žemėlapius.


METAR-TAF: